Friday, February 23, 2018, 1:42 PM EST
Back to Local

KBGR, Bangor Int'l Airport

Location: Bangor, ME, United States Lat: 44.8
Local Time: 1:42 PM EST (18:42 GMT) Lon: -68.817
Time Zone: US/Eastern Elev: 193 ft

Show me the last for .
Show Decoded

2018-02-23 12:53 METAR KBGR 231753Z 20005KT 10SM FEW120 BKN200 M01/M12 A3060 RMK AO2 SLP364
                 T10111122 11006 21078 58040 =
2018-02-23 11:53 METAR KBGR 231653Z 12007KT 10SM FEW120 BKN200 M01/M11 A3063 RMK AO2 SLP376
                 T10111111 $ =
2018-02-23 10:53 METAR KBGR 231553Z 15007KT 10SM CLR M03/M13 A3069 RMK AO2 SLP395 T10281128 $ =
2018-02-23 09:53 METAR KBGR 231453Z 13004KT 10SM FEW120 BKN200 M04/M13 A3072 RMK AO2 SLP405
                 T10391133 58012 $ =
2018-02-23 08:53 METAR KBGR 231353Z 13004KT 10SM FEW200 M05/M13 A3073 RMK AO2 SLP411 T10501128 $
                 =
2018-02-23 07:53 METAR KBGR 231253Z 04003KT 10SM FEW200 M06/M12 A3075 RMK AO2 SLP415 T10561117 $
                 =
2018-02-23 06:53 METAR KBGR 231153Z 00000KT 10SM FEW200 M08/M12 A3075 RMK AO2 SLP417 T10781117
                 11056 21083 51006 $ =
2018-02-23 05:53 METAR KBGR 231053Z 01003KT 10SM FEW050 M08/M12 A3075 RMK AO2 SLP416 T10781117 $
                 =
2018-02-23 04:53 METAR KBGR 230953Z 01003KT 10SM CLR M07/M12 A3075 RMK AO2 SLP417 T10671122 $ =
2018-02-23 03:53 METAR KBGR 230853Z 35004KT 10SM CLR M07/M12 A3073 RMK AO2 SLP410 T10671117 51008
                 $ =
2018-02-23 02:53 METAR KBGR 230753Z 00000KT 10SM CLR M08/M11 A3072 RMK AO2 SLP407 T10781111 $ =
2018-02-23 01:53 METAR KBGR 230653Z 00000KT 10SM CLR M07/M11 A3073 RMK AO2 SLP408 T10671111 $ =
2018-02-23 00:53 METAR KBGR 230553Z 34003KT 10SM CLR M06/M11 A3071 RMK AO2 SLP402 T10561111 11011
                 21056 51009 $ =
2018-02-22 23:53 METAR KBGR 230453Z 35003KT 10SM CLR M05/M11 A3070 RMK AO2 SLP399 T10501111
                 400331056 $ =
2018-02-22 22:53 METAR KBGR 230353Z 33005KT 10SM CLR M04/M11 A3070 RMK AO2 SLP398 T10441106 $ =
2018-02-22 21:53 METAR KBGR 230253Z 34006KT 10SM FEW250 M04/M10 A3068 RMK AO2 SLP393 T10391100
                 53006 $ =
2018-02-22 20:53 METAR KBGR 230153Z 35003KT 10SM FEW250 M03/M10 A3067 RMK AO2 SLP390 T10281100 $
                 =
2018-02-22 19:53 METAR KBGR 230053Z 32004KT 10SM FEW110 SCT250 M02/M10 A3067 RMK AO2 SLP388
                 T10171100 $ =
2018-02-22 18:53 METAR KBGR 222353Z 00000KT 10SM BKN110 OVC250 M01/M11 A3066 RMK AO2 SLP387
                 T10061106 10000 21011 53011 $ =
2018-02-22 17:53 METAR KBGR 222253Z 00000KT 10SM BKN110 OVC250 M01/M10 A3064 RMK AO2 SLP379
                 T10061100 $ =
2018-02-22 16:53 METAR KBGR 222153Z 32007KT 10SM BKN110 OVC250 00/M09 A3064 RMK AO2 SLP380
                 T00001094 $ =
2018-02-22 15:53 METAR KBGR 222053Z 31007KT 10SM BKN110 OVC250 00/M12 A3063 RMK AO2 SLP376
                 T00001117 55004 $ =
2018-02-22 14:53 METAR KBGR 221953Z 32004KT 10SM OVC200 00/M12 A3062 RMK AO2 SLP371 T00001117 =
2018-02-22 13:53 METAR KBGR 221853Z 33005KT 10SM OVC200 00/M11 A3062 RMK AO2 SLP372 T00001106 =

Support USWX by starting your Amazon purchase here.